Time;durP1;ratioP1;P1;durP2;ratioP2;P2;SDS_P1;SDS_P2;PMS_P1;PMS_P2;Temp;Humidity;BMP_temperature;BMP_pressure;BME280_temperature;BME280_humidity;BME280_pressure;Samples;Min_cycle;Max_cycle;Signal;HPM_P1;HPM_P2
2022/10/27 00:01:08;;;;;;;10.07;3.63;;;;;;;12.18;100.00;97393.19;5093806;28;20623;-61
2022/10/27 00:03:34;;;;;;;7.87;3.77;;;;;;;12.29;100.00;97394.91;5080843;28;20304;-59
2022/10/27 00:06:05;;;;;;;11.60;4.03;;;;;;;12.26;100.00;97387.19;5080937;28;20300;-59
2022/10/27 00:08:31;;;;;;;9.80;3.77;;;;;;;12.18;100.00;97387.88;5080677;28;20198;-61
2022/10/27 00:10:59;;;;;;;4.10;3.60;;;;;;;12.18;100.00;97387.03;5080872;28;20290;-60
2022/10/27 00:13:26;;;;;;;7.73;4.03;;;;;;;12.22;100.00;97394.56;5080821;28;20218;-61
2022/10/27 00:15:58;;;;;;;7.03;3.83;;;;;;;12.23;100.00;97385.66;5081284;28;20241;-60
2022/10/27 00:18:27;;;;;;;10.40;4.10;;;;;;;12.24;100.00;97389.16;5081430;28;20238;-60
2022/10/27 00:21:01;;;;;;;6.70;3.53;;;;;;;12.19;100.00;97391.34;5083197;28;20281;-60
2022/10/27 00:23:27;;;;;;;11.17;4.53;;;;;;;12.15;100.00;97392.63;5102932;28;20230;-60
2022/10/27 00:25:55;;;;;;;5.47;3.30;;;;;;;12.14;100.00;97393.59;5103619;28;20238;-61
2022/10/27 00:28:21;;;;;;;8.27;4.00;;;;;;;12.10;100.00;97386.88;5104927;28;20186;-61
2022/10/27 00:30:48;;;;;;;6.20;3.90;;;;;;;12.04;100.00;97390.06;5108496;28;20194;-60
2022/10/27 00:33:16;;;;;;;9.50;3.67;;;;;;;11.98;100.00;97388.75;5084993;28;20230;-59
2022/10/27 00:35:43;;;;;;;9.47;3.33;;;;;;;11.92;100.00;97387.50;5084071;28;20288;-60
2022/10/27 00:38:10;;;;;;;9.87;3.97;;;;;;;11.93;100.00;97396.28;5084153;28;20203;-60
2022/10/27 00:40:37;;;;;;;5.57;3.40;;;;;;;11.93;100.00;97389.19;5083654;28;20308;-60
2022/10/27 00:43:25;;;;;;;8.80;3.87;;;;;;;11.91;100.00;97396.41;5083652;28;20257;-61
2022/10/27 00:45:52;;;;;;;7.97;3.90;;;;;;;11.92;100.00;97403.41;5083978;28;20627;-60
2022/10/27 00:48:20;;;;;;;10.43;3.60;;;;;;;11.87;100.00;97395.00;5083624;28;20201;-59
2022/10/27 00:50:47;;;;;;;9.03;4.10;;;;;;;11.84;100.00;97410.31;5083704;28;20316;-60
2022/10/27 00:53:14;;;;;;;7.17;3.93;;;;;;;11.80;100.00;97415.06;5083447;28;20198;-60
2022/10/27 00:55:41;;;;;;;10.10;4.20;;;;;;;11.84;100.00;97413.81;5083768;28;20228;-60
2022/10/27 00:58:10;;;;;;;10.33;4.73;;;;;;;11.81;100.00;97403.50;5084262;28;20201;-61
2022/10/27 01:00:39;;;;;;;10.03;4.10;;;;;;;11.80;100.00;97406.25;5093454;28;20228;-60
2022/10/27 01:03:07;;;;;;;6.93;4.00;;;;;;;11.85;100.00;97407.56;5101239;28;20229;-61
2022/10/27 01:05:35;;;;;;;8.33;3.83;;;;;;;11.72;100.00;97408.75;5093891;28;20237;-61
2022/10/27 01:08:05;;;;;;;7.83;4.17;;;;;;;11.68;100.00;97413.44;5095973;28;20234;-61
2022/10/27 01:10:32;;;;;;;8.30;4.40;;;;;;;11.64;100.00;97400.56;5087387;28;20242;-60
2022/10/27 01:12:59;;;;;;;8.37;3.80;;;;;;;11.62;100.00;97410.47;5087979;28;20222;-60
2022/10/27 01:15:30;;;;;;;10.63;4.33;;;;;;;11.63;100.00;97407.69;5086397;28;20228;-60
2022/10/27 01:18:01;;;;;;;12.77;4.30;;;;;;;11.56;100.00;97401.22;5088465;28;20232;-60
2022/10/27 01:20:46;;;;;;;11.17;4.37;;;;;;;11.52;100.00;97405.09;5093099;28;20195;-61
2022/10/27 01:23:22;;;;;;;5.93;3.67;;;;;;;11.52;100.00;97405.09;5092087;28;20194;-63
2022/10/27 01:26:15;;;;;;;5.50;3.57;;;;;;;11.54;100.00;97402.34;5101047;28;20205;-65
2022/10/27 01:29:11;;;;;;;6.43;3.60;;;;;;;11.45;100.00;97409.25;5098347;28;20546;-60
2022/10/27 01:31:43;;;;;;;12.03;4.23;;;;;;;11.46;100.00;97413.56;5085708;28;20218;-60
2022/10/27 01:34:12;;;;;;;7.67;3.97;;;;;;;11.56;100.00;97417.13;5085830;28;20214;-60
2022/10/27 01:36:45;;;;;;;7.07;3.83;;;;;;;11.54;100.00;97413.78;5083657;28;20220;-60
2022/10/27 01:39:16;;;;;;;9.77;4.10;;;;;;;11.49;100.00;97415.97;5084282;28;20195;-61
2022/10/27 01:41:47;;;;;;;10.83;4.23;;;;;;;11.52;100.00;97410.41;5082175;28;20285;-59
2022/10/27 01:44:17;;;;;;;9.93;4.57;;;;;;;11.54;100.00;97405.81;5083366;28;20211;-60
2022/10/27 01:46:47;;;;;;;8.30;3.90;;;;;;;11.62;100.00;97413.94;5083212;28;20290;-60
2022/10/27 01:49:14;;;;;;;7.37;3.97;;;;;;;11.64;100.00;97419.13;5065862;28;20292;-60
2022/10/27 01:51:41;;;;;;;9.30;5.30;;;;;;;11.58;100.00;97425.78;5083909;28;20265;-60
2022/10/27 01:54:07;;;;;;;7.20;4.80;;;;;;;11.55;100.00;97426.03;5086082;28;20297;-61
2022/10/27 01:56:45;;;;;;;8.77;4.47;;;;;;;11.51;100.00;97424.63;5084948;28;20289;-60
2022/10/27 01:59:25;;;;;;;10.43;4.37;;;;;;;11.53;100.00;97425.34;5084357;28;20244;-61
2022/10/27 02:02:00;;;;;;;11.27;4.53;;;;;;;11.54;100.00;97424.38;5085737;28;20217;-61
2022/10/27 02:04:34;;;;;;;11.57;4.33;;;;;;;11.66;100.00;97425.97;5085709;28;20303;-60
2022/10/27 02:07:06;;;;;;;9.97;4.20;;;;;;;11.61;100.00;97425.53;5084688;28;20204;-59
2022/10/27 02:09:39;;;;;;;6.47;4.20;;;;;;;11.52;100.00;97428.94;5083518;28;20229;-60
2022/10/27 02:12:11;;;;;;;7.10;4.40;;;;;;;11.54;100.00;97424.38;5082261;28;20270;-60
2022/10/27 02:14:40;;;;;;;6.60;4.77;;;;;;;11.54;100.00;97424.38;5082287;28;20329;-60
2022/10/27 02:17:09;;;;;;;7.20;4.13;;;;;;;11.46;100.00;97418.88;5082536;28;20195;-60
2022/10/27 02:19:39;;;;;;;8.37;4.50;;;;;;;11.41;100.00;97418.41;5082416;28;20293;-60
2022/10/27 02:22:07;;;;;;;8.90;4.10;;;;;;;11.38;100.00;97414.22;5082456;28;20206;-60
2022/10/27 02:24:34;;;;;;;8.37;4.20;;;;;;;11.40;100.00;97408.81;5082073;28;20313;-59
2022/10/27 02:27:03;;;;;;;8.30;3.93;;;;;;;11.36;100.00;97412.69;5081626;28;20735;-60
2022/10/27 02:29:34;;;;;;;7.90;4.40;;;;;;;11.35;100.00;97414.47;5082119;28;20289;-60
2022/10/27 02:32:02;;;;;;;5.50;4.10;;;;;;;11.36;100.00;97416.16;5081278;28;20690;-61
2022/10/27 02:34:31;;;;;;;4.67;3.90;;;;;;;11.41;100.00;97429.00;5081592;28;20285;-59
2022/10/27 02:36:58;;;;;;;6.27;3.80;;;;;;;11.41;100.00;97434.28;5081865;28;20204;-60
2022/10/27 02:39:25;;;;;;;8.00;3.77;;;;;;;11.41;100.00;97421.06;5081885;28;20289;-60
2022/10/27 02:41:52;;;;;;;6.27;3.93;;;;;;;11.42;100.00;97422.75;5081854;28;20211;-60
2022/10/27 02:44:18;;;;;;;8.47;4.50;;;;;;;11.43;100.00;97422.63;5081959;28;20226;-60
2022/10/27 02:46:46;;;;;;;5.03;4.00;;;;;;;11.47;100.00;97434.66;5081699;28;20281;-60
2022/10/27 02:49:13;;;;;;;9.13;4.00;;;;;;;11.49;100.00;97430.06;5081525;28;20225;-60
2022/10/27 02:51:44;;;;;;;7.67;4.10;;;;;;;11.49;100.00;97431.84;5081375;28;20274;-60
2022/10/27 02:54:11;;;;;;;9.57;4.17;;;;;;;11.47;100.00;97429.34;5081367;28;20191;-60
2022/10/27 02:56:38;;;;;;;11.23;4.60;;;;;;;11.49;100.00;97431.84;5082648;28;20851;-60
2022/10/27 02:59:04;;;;;;;7.20;4.23;;;;;;;11.49;100.00;97431.84;5082525;28;20208;-60
2022/10/27 03:01:31;;;;;;;6.73;3.97;;;;;;;11.48;100.00;97432.81;5081972;28;20203;-60
2022/10/27 03:03:57;;;;;;;7.10;4.37;;;;;;;11.43;100.00;97432.38;5082379;28;20225;-61
2022/10/27 03:06:24;;;;;;;5.83;3.97;;;;;;;11.44;100.00;97428.78;5092874;28;20201;-59
2022/10/27 03:08:52;;;;;;;7.33;4.10;;;;;;;11.49;100.00;97424.75;5092743;28;20206;-59
2022/10/27 03:11:19;;;;;;;8.30;4.83;;;;;;;11.47;100.00;97428.50;5082163;28;20311;-59
2022/10/27 03:13:46;;;;;;;6.27;4.20;;;;;;;11.46;100.00;97426.81;5082259;28;20587;-59
2022/10/27 03:16:12;;;;;;;9.47;4.10;;;;;;;11.39;100.00;97431.78;5081920;28;20233;-60
2022/10/27 03:18:40;;;;;;;7.90;3.90;;;;;;;11.41;100.00;97436.94;5081313;28;20545;-60
2022/10/27 03:21:07;;;;;;;10.63;4.57;;;;;;;11.44;100.00;97444.66;5090830;28;20274;-61
2022/10/27 03:23:34;;;;;;;4.93;3.80;;;;;;;11.45;100.00;97441.03;5101507;28;20222;-60
2022/10/27 03:26:03;;;;;;;9.47;3.70;;;;;;;11.46;100.00;97448.00;5094732;28;20206;-61
2022/10/27 03:28:34;;;;;;;7.83;4.60;;;;;;;11.43;100.00;97443.81;5093258;28;20212;-60
2022/10/27 03:31:00;;;;;;;10.20;4.47;;;;;;;11.42;100.00;97451.88;5082888;28;20206;-61
2022/10/27 03:33:27;;;;;;;7.30;3.80;;;;;;;11.38;100.00;97450.44;5081893;28;20191;-61
2022/10/27 03:35:54;;;;;;;6.13;4.07;;;;;;;11.45;100.00;97448.97;5081934;28;20930;-60
2022/10/27 03:38:21;;;;;;;8.17;4.30;;;;;;;11.46;100.00;97453.31;5081947;28;20649;-60
2022/10/27 03:40:49;;;;;;;6.23;4.53;;;;;;;11.48;100.00;97446.06;5080917;28;20206;-60
2022/10/27 03:43:17;;;;;;;9.70;4.70;;;;;;;11.48;100.00;97451.34;5080817;28;20309;-60
2022/10/27 03:45:47;;;;;;;9.67;4.57;;;;;;;11.48;100.00;97451.34;5081211;28;20312;-60
2022/10/27 03:48:14;;;;;;;10.23;4.17;;;;;;;11.47;100.00;97447.91;5081456;28;20206;-60
2022/10/27 03:50:41;;;;;;;9.63;4.00;;;;;;;11.46;100.00;97446.19;5081169;28;20291;-60
2022/10/27 03:53:08;;;;;;;9.67;4.20;;;;;;;11.48;100.00;97446.06;5080995;28;20289;-60
2022/10/27 03:55:35;;;;;;;5.97;4.17;;;;;;;11.49;100.00;97448.59;5080344;28;20288;-60
2022/10/27 03:58:02;;;;;;;6.73;4.00;;;;;;;11.47;100.00;97455.00;5080456;28;20588;-60
2022/10/27 04:00:32;;;;;;;7.63;4.20;;;;;;;11.49;100.00;97455.69;5081166;28;20643;-60
2022/10/27 04:02:59;;;;;;;7.93;4.77;;;;;;;11.46;100.00;97453.31;5080805;28;20193;-60
2022/10/27 04:05:26;;;;;;;10.17;4.27;;;;;;;11.44;100.00;97453.41;5084107;28;20582;-61
2022/10/27 04:07:52;;;;;;;5.97;4.40;;;;;;;11.44;100.00;97453.41;5084718;28;20241;-61
2022/10/27 04:10:19;;;;;;;6.07;4.20;;;;;;;11.42;100.00;97451.88;5084497;28;20599;-61
2022/10/27 04:12:49;;;;;;;8.10;4.30;;;;;;;11.45;100.00;97452.47;5084210;28;20634;-60
2022/10/27 04:15:16;;;;;;;5.43;4.10;;;;;;;11.48;100.00;97456.66;5084956;28;20191;-60
2022/10/27 04:17:45;;;;;;;5.27;4.30;;;;;;;11.51;100.00;97461.72;5084715;28;20202;-60
2022/10/27 04:20:12;;;;;;;7.03;4.53;;;;;;;11.50;100.00;97460.03;5084950;28;20281;-60
2022/10/27 04:22:39;;;;;;;7.47;4.47;;;;;;;11.53;100.00;97459.75;5084457;28;20289;-61
2022/10/27 04:25:06;;;;;;;7.63;3.80;;;;;;;11.53;100.00;97465.06;5083515;28;20661;-60
2022/10/27 04:27:33;;;;;;;7.47;4.10;;;;;;;11.52;100.00;97463.38;5084175;28;20277;-60
2022/10/27 04:29:59;;;;;;;7.53;3.77;;;;;;;11.54;100.00;97466.75;5084124;28;20206;-60
2022/10/27 04:32:26;;;;;;;8.20;4.50;;;;;;;11.56;100.00;97463.97;5083999;28;20230;-61
2022/10/27 04:34:54;;;;;;;8.57;4.30;;;;;;;11.55;100.00;97468.41;5084302;28;20648;-60
2022/10/27 04:37:21;;;;;;;5.50;3.90;;;;;;;11.55;100.00;97464.94;5083745;28;20289;-60
2022/10/27 04:39:47;;;;;;;8.73;4.20;;;;;;;11.50;100.00;97460.03;5084424;28;20200;-59
2022/10/27 04:42:14;;;;;;;6.67;4.40;;;;;;;11.52;100.00;97460.72;5084883;28;20300;-60
2022/10/27 04:44:41;;;;;;;7.27;3.93;;;;;;;11.53;100.00;97458.91;5084046;28;20254;-60
2022/10/27 04:47:07;;;;;;;7.83;4.00;;;;;;;11.55;100.00;97473.72;5083777;28;20210;-60
2022/10/27 04:49:34;;;;;;;6.80;4.27;;;;;;;11.55;100.00;97470.25;5084354;28;20228;-60
2022/10/27 04:52:02;;;;;;;7.63;3.90;;;;;;;11.53;100.00;97470.34;5083826;28;21321;-61
2022/10/27 04:54:29;;;;;;;6.30;4.13;;;;;;;11.54;100.00;97463.25;5084072;28;20256;-61
2022/10/27 04:56:55;;;;;;;7.80;4.87;;;;;;;11.57;100.00;97463.84;5066204;28;20213;-60
2022/10/27 04:59:22;;;;;;;7.13;4.93;;;;;;;11.52;100.00;97467.81;5084605;28;20197;-60
2022/10/27 05:01:48;;;;;;;8.73;4.90;;;;;;;11.46;100.00;97474.50;5084003;28;20284;-60
2022/10/27 05:04:15;;;;;;;6.47;4.60;;;;;;;11.40;100.00;97478.50;5098458;28;20241;-61
2022/10/27 05:06:42;;;;;;;5.57;4.50;;;;;;;11.39;100.00;97473.31;5088991;28;20199;-60
2022/10/27 05:09:10;;;;;;;8.27;4.83;;;;;;;11.43;100.00;97472.94;5090361;28;20234;-61
2022/10/27 05:11:37;;;;;;;10.27;4.70;;;;;;;11.40;100.00;97467.91;5096034;28;20217;-61
2022/10/27 05:14:03;;;;;;;7.33;5.13;;;;;;;11.39;100.00;97478.63;5106496;28;20195;-63
2022/10/27 05:16:30;;;;;;;8.30;4.80;;;;;;;11.39;100.00;97481.28;5106967;28;20177;-59
2022/10/27 05:18:56;;;;;;;8.47;4.77;;;;;;;11.37;100.00;97470.78;5083606;28;20289;-59
2022/10/27 05:21:23;;;;;;;12.43;4.80;;;;;;;11.41;100.00;97474.03;5084117;28;20281;-60
2022/10/27 05:23:50;;;;;;;8.57;4.60;;;;;;;11.44;100.00;97466.66;5083114;28;20284;-59
2022/10/27 05:26:18;;;;;;;8.93;5.20;;;;;;;11.50;100.00;97473.28;5065425;28;20225;-60
2022/10/27 05:28:45;;;;;;;11.57;7.00;;;;;;;11.52;100.00;97471.31;5083403;28;20572;-60
2022/10/27 05:31:12;;;;;;;12.57;5.87;;;;;;;11.53;100.00;97477.47;5082953;28;20208;-59
2022/10/27 05:33:38;;;;;;;12.93;6.63;;;;;;;11.53;100.00;97475.66;5083412;28;20305;-60
2022/10/27 05:36:06;;;;;;;11.83;6.37;;;;;;;11.57;100.00;97479.75;5083536;28;20242;-60
2022/10/27 05:38:32;;;;;;;13.20;6.33;;;;;;;11.47;100.00;97476.19;5083395;28;20318;-60
2022/10/27 05:40:59;;;;;;;13.03;6.87;;;;;;;11.45;100.00;97486.03;5082727;28;20245;-59
2022/10/27 05:43:27;;;;;;;13.27;6.07;;;;;;;11.44;100.00;97481.75;5083109;28;20230;-61
2022/10/27 05:45:53;;;;;;;7.93;5.30;;;;;;;11.40;100.00;97475.84;5082716;28;20282;-60
2022/10/27 05:48:20;;;;;;;9.03;5.20;;;;;;;11.35;100.00;97479.84;5082957;28;20202;-59
2022/10/27 05:50:52;;;;;;;7.97;5.30;;;;;;;11.36;100.00;97484.19;5082907;28;20234;-60
2022/10/27 05:53:19;;;;;;;11.67;5.27;;;;;;;11.33;100.00;97481.78;5082769;28;20230;-60
2022/10/27 05:55:46;;;;;;;12.93;5.60;;;;;;;11.30;100.00;97479.41;5082583;28;20218;-60
2022/10/27 05:58:13;;;;;;;6.30;5.07;;;;;;;11.39;100.00;97490.06;5082801;28;20320;-60
2022/10/27 06:00:41;;;;;;;9.63;5.30;;;;;;;11.39;100.00;97492.72;5082816;28;20682;-60
2022/10/27 06:03:09;;;;;;;8.13;5.83;;;;;;;11.43;100.00;97491.50;5083378;28;20286;-60
2022/10/27 06:05:36;;;;;;;21.80;8.43;;;;;;;11.48;100.00;97491.09;5082497;28;20278;-61
2022/10/27 06:08:03;;;;;;;19.47;8.90;;;;;;;11.52;100.00;97495.16;5083097;28;20603;-60
2022/10/27 06:10:30;;;;;;;24.13;9.13;;;;;;;11.56;100.00;97501.88;5083499;28;20293;-60
2022/10/27 06:13:01;;;;;;;13.93;8.53;;;;;;;11.58;100.00;97510.56;5083424;28;20599;-61
2022/10/27 06:15:28;;;;;;;11.13;8.20;;;;;;;11.64;100.00;97509.19;5082975;28;20190;-59
2022/10/27 06:17:56;;;;;;;13.30;8.00;;;;;;;11.66;100.00;97509.91;5082971;28;20288;-61
2022/10/27 06:20:23;;;;;;;11.90;7.77;;;;;;;11.62;100.00;97516.44;5082364;28;20244;-60
2022/10/27 06:22:49;;;;;;;9.80;7.07;;;;;;;11.64;100.00;97514.50;5100647;28;20178;-61
2022/10/27 06:25:17;;;;;;;14.47;7.60;;;;;;;11.54;100.00;97514.44;5086826;28;20218;-60
2022/10/27 06:27:43;;;;;;;12.40;7.70;;;;;;;11.52;100.00;97511.06;5104459;28;20836;-60
2022/10/27 06:30:11;;;;;;;15.80;7.70;;;;;;;11.53;100.00;97511.91;5101654;28;20209;-60
2022/10/27 06:32:38;;;;;;;19.10;7.90;;;;;;;11.52;100.00;97521.66;5081200;28;20209;-60
2022/10/27 06:35:06;;;;;;;12.57;8.27;;;;;;;11.62;100.00;97525.22;5082156;28;20202;-60
2022/10/27 06:37:33;;;;;;;16.50;9.33;;;;;;;11.61;100.00;97526.19;5082240;28;20201;-61
2022/10/27 06:40:00;;;;;;;17.10;8.43;;;;;;;11.67;100.00;97530.97;5082087;28;20344;-60
2022/10/27 06:42:26;;;;;;;11.70;8.00;;;;;;;11.67;100.00;97535.44;5082300;28;20199;-61
2022/10/27 06:44:53;;;;;;;28.60;8.53;;;;;;;11.68;100.00;97535.31;5081093;28;20688;-60
2022/10/27 06:47:19;;;;;;;17.67;8.53;;;;;;;11.71;100.00;97536.91;5081477;28;20217;-60
2022/10/27 06:49:46;;;;;;;30.27;8.97;;;;;;;11.68;100.00;97540.63;5082217;28;20233;-60
2022/10/27 06:52:16;;;;;;;16.77;8.60;;;;;;;11.67;100.00;97549.53;5081146;28;20229;-60
2022/10/27 06:54:43;;;;;;;14.53;8.00;;;;;;;11.74;100.00;97553.38;5089031;28;20329;-60
2022/10/27 06:57:10;;;;;;;16.40;7.40;;;;;;;11.72;100.00;97554.50;5101082;28;20205;-60
2022/10/27 06:59:36;;;;;;;8.13;6.80;;;;;;;11.71;100.00;97543.03;5099372;28;20201;-61
2022/10/27 07:02:04;;;;;;;17.00;7.37;;;;;;;11.66;100.00;97544.34;5094710;28;20221;-60
2022/10/27 07:04:30;;;;;;;14.30;7.90;;;;;;;11.67;100.00;97552.19;5100797;28;20226;-61
2022/10/27 07:06:57;;;;;;;25.57;8.13;;;;;;;11.63;100.00;97556.03;5082147;28;20280;-60
2022/10/27 07:09:25;;;;;;;37.73;8.87;;;;;;;11.60;100.00;97560.75;5082199;28;20297;-61
2022/10/27 07:11:52;;;;;;;30.30;8.93;;;;;;;11.60;100.00;97558.94;5082207;28;20198;-61
2022/10/27 07:14:19;;;;;;;24.33;8.00;;;;;;;11.67;100.00;97561.94;5081157;28;20194;-60
2022/10/27 07:16:45;;;;;;;22.47;8.87;;;;;;;11.66;100.00;97563.72;5081383;28;20309;-60
2022/10/27 07:19:12;;;;;;;20.53;8.30;;;;;;;11.64;100.00;97562.19;5081330;28;20688;-60
2022/10/27 07:21:39;;;;;;;30.37;8.57;;;;;;;11.64;100.00;97560.38;5081549;28;20208;-60
2022/10/27 07:24:06;;;;;;;33.33;7.80;;;;;;;11.67;100.00;97560.13;5081136;28;20229;-60
2022/10/27 07:26:34;;;;;;;36.97;8.73;;;;;;;11.61;100.00;97562.44;5081516;28;20297;-60
2022/10/27 07:29:00;;;;;;;9.93;7.27;;;;;;;11.68;100.00;97564.47;5080910;28;20305;-60
2022/10/27 07:31:27;;;;;;;40.93;7.50;;;;;;;11.66;100.00;97563.72;5081101;28;20328;-60
2022/10/27 07:33:54;;;;;;;14.87;6.70;;;;;;;11.65;100.00;97563.88;5080762;28;20293;-60
2022/10/27 07:36:20;;;;;;;13.30;7.10;;;;;;;11.64;100.00;97563.03;5081271;28;20282;-60
2022/10/27 07:38:47;;;;;;;15.27;7.33;;;;;;;11.66;100.00;97558.44;5081823;28;20694;-60
2022/10/27 07:41:14;;;;;;;10.23;6.73;;;;;;;11.71;100.00;97555.44;5085360;28;20660;-60
2022/10/27 07:43:44;;;;;;;8.20;6.00;;;;;;;11.67;100.00;97557.47;5085666;28;20198;-61
2022/10/27 07:46:11;;;;;;;14.37;6.67;;;;;;;11.75;100.00;97572.78;5086034;28;20308;-60
2022/10/27 07:48:37;;;;;;;11.50;6.10;;;;;;;11.83;100.00;97573.00;5086287;28;21562;-60
2022/10/27 07:51:04;;;;;;;6.33;5.73;;;;;;;11.82;100.00;97577.44;5086786;28;20313;-61
2022/10/27 07:53:31;;;;;;;5.97;5.47;;;;;;;11.84;100.00;97575.50;5087222;28;20626;-60
2022/10/27 07:55:59;;;;;;;9.97;6.50;;;;;;;11.86;100.00;97575.38;5086978;28;20289;-60
2022/10/27 07:58:25;;;;;;;11.87;6.50;;;;;;;11.75;100.00;97578.91;5086366;28;20301;-61
2022/10/27 08:00:53;;;;;;;8.73;6.33;;;;;;;11.77;100.00;97578.78;5086226;28;20705;-60
2022/10/27 08:03:21;;;;;;;8.43;6.50;;;;;;;11.84;100.00;97572.00;5087064;28;20198;-61
2022/10/27 08:05:49;;;;;;;7.33;5.80;;;;;;;11.88;100.00;97576.06;5092929;28;20245;-61
2022/10/27 08:08:16;;;;;;;14.57;6.27;;;;;;;11.86;100.00;97576.22;5091148;28;20225;-60
2022/10/27 08:10:44;;;;;;;9.13;6.37;;;;;;;11.86;100.00;97581.53;5092496;28;20221;-60
2022/10/27 08:13:11;;;;;;;6.37;5.60;;;;;;;11.86;100.00;97585.97;5084517;28;20234;-60
2022/10/27 08:15:40;;;;;;;6.23;5.20;;;;;;;11.93;100.00;97581.84;5084809;28;20293;-60
2022/10/27 08:18:09;;;;;;;6.13;4.60;;;;;;;12.06;100.00;97589.59;5084645;28;20300;-59
2022/10/27 08:20:38;;;;;;;6.30;5.57;;;;;;;12.10;100.00;97586.56;5084218;28;20217;-60
2022/10/27 08:23:08;;;;;;;12.60;6.13;;;;;;;12.11;100.00;97584.75;5084519;28;20296;-61
2022/10/27 08:25:34;;;;;;;9.93;6.63;;;;;;;12.22;100.00;97584.69;5084507;28;20218;-60
2022/10/27 08:28:01;;;;;;;8.43;7.53;;;;;;;12.29;100.00;97584.03;5084287;28;20753;-61
2022/10/27 08:30:29;;;;;;;7.53;6.27;;;;;;;12.42;100.00;97589.97;5084881;28;20600;-60
2022/10/27 08:32:57;;;;;;;11.93;7.40;;;;;;;12.43;100.00;97593.47;5084299;28;20205;-60
2022/10/27 08:35:25;;;;;;;10.33;7.30;;;;;;;12.53;100.00;97589.06;5084098;28;20884;-60
2022/10/27 08:37:58;;;;;;;13.50;8.17;;;;;;;12.51;100.00;97590.97;5084436;28;20245;-60
2022/10/27 08:40:26;;;;;;;18.70;7.70;;;;;;;12.61;100.00;97591.88;5084031;28;20205;-59
2022/10/27 08:42:59;;;;;;;7.97;6.20;;;;;;;12.71;100.00;97584.81;5084020;28;21457;-60
2022/10/27 08:45:29;;;;;;;7.57;6.33;;;;;;;12.77;100.00;97592.25;5084080;28;20241;-60
2022/10/27 08:47:56;;;;;;;13.37;7.77;;;;;;;12.84;100.00;97588.06;5084372;28;20847;-59
2022/10/27 08:50:27;;;;;;;11.50;8.10;;;;;;;12.86;100.00;97591.41;5098957;28;20289;-61
2022/10/27 08:52:56;;;;;;;9.40;7.33;;;;;;;12.97;100.00;97596.63;5106970;28;20194;-62
2022/10/27 08:55:25;;;;;;;13.17;8.13;;;;;;;12.90;100.00;97592.00;5088205;28;20578;-59
2022/10/27 08:57:57;;;;;;;8.77;7.70;;;;;;;13.05;100.00;97592.47;5092270;28;20229;-60
2022/10/27 09:00:24;;;;;;;10.57;8.10;;;;;;;13.20;100.00;97601.78;5099284;28;20186;-60
2022/10/27 09:03:03;;;;;;;9.20;7.83;;;;;;;13.44;100.00;97599.59;5103035;28;20202;-59
2022/10/27 09:05:54;;;;;;;9.43;8.30;;;;;;;13.66;100.00;97599.34;5088902;28;20284;-61
2022/10/27 09:08:25;;;;;;;11.57;9.80;;;;;;;13.74;100.00;97607.47;5093680;28;21468;-60
2022/10/27 09:10:57;;;;;;;10.13;9.03;;;;;;;14.00;100.00;97590.94;5093911;28;20221;-60
2022/10/27 09:13:33;;;;;;;10.37;8.67;;;;;;;14.11;100.00;97586.31;5095132;28;20202;-59
2022/10/27 09:16:01;;;;;;;10.37;9.07;;;;;;;14.10;100.00;97584.63;5085638;28;20236;-61
2022/10/27 09:18:31;;;;;;;17.93;9.60;;;;;;;14.26;100.00;97586.72;5086534;28;20262;-60
2022/10/27 09:21:01;;;;;;;13.43;9.30;;;;;;;14.54;100.00;97585.84;5087008;28;20281;-61
2022/10/27 09:23:30;;;;;;;11.07;9.73;;;;;;;14.86;100.00;97586.28;5086824;28;20285;-60
2022/10/27 09:25:58;;;;;;;17.63;9.70;;;;;;;14.90;100.00;97578.84;5086952;28;20297;-60
2022/10/27 09:28:31;;;;;;;10.18;8.88;;;;;;;15.15;100.00;97578.16;5087110;28;20285;-60
2022/10/27 09:30:58;;;;;;;14.80;8.87;;;;;;;15.14;100.00;97578.28;5085836;28;21136;-61
2022/10/27 09:33:29;;;;;;;12.15;8.77;;;;;;;15.42;100.00;97577.28;5084030;28;20198;-59
2022/10/27 09:35:56;;;;;;;10.43;8.15;;;;;;;15.74;100.00;97585.66;5083204;28;20197;-61
2022/10/27 09:38:26;;;;;;;12.48;8.15;;;;;;;16.00;100.00;97583.06;5083996;28;20205;-60
2022/10/27 09:40:54;;;;;;;13.27;8.52;;;;;;;16.23;100.00;97584.22;5085939;28;20202;-60
2022/10/27 09:43:21;;;;;;;12.77;8.00;;;;;;;16.42;100.00;97585.88;5082446;28;20296;-59
2022/10/27 09:45:54;;;;;;;13.90;8.13;;;;;;;16.70;100.00;97583.91;5083104;28;20218;-60
2022/10/27 09:48:23;;;;;;;9.93;7.95;;;;;;;16.90;100.00;97585.34;5082774;28;20247;-61
2022/10/27 09:50:53;;;;;;;10.90;7.32;;;;;;;17.07;100.00;97586.28;5082751;28;20248;-60
2022/10/27 09:53:43;;;;;;;10.65;7.22;;;;;;;17.16;100.00;97582.63;5082467;28;20702;-60
2022/10/27 09:56:12;;;;;;;8.90;6.45;;;;;;;17.43;100.00;97583.22;5082464;28;20217;-60
2022/10/27 09:58:46;;;;;;;11.27;6.03;;;;;;;17.58;97.18;97591.50;5082352;28;20286;-60
2022/10/27 10:01:12;;;;;;;7.90;6.68;;;;;;;17.69;94.18;97590.34;5082776;28;20222;-60
2022/10/27 10:03:39;;;;;;;10.77;6.75;;;;;;;17.63;93.75;97589.19;5082035;28;20617;-62
2022/10/27 10:06:23;;;;;;;9.38;6.47;;;;;;;17.89;95.55;97579.16;5081927;28;20226;-61
2022/10/27 10:08:51;;;;;;;11.68;6.60;;;;;;;18.11;94.17;97588.38;5082634;28;20221;-60
2022/10/27 10:11:19;;;;;;;7.05;6.28;;;;;;;18.21;93.42;97590.94;5082411;28;20293;-60
2022/10/27 10:13:56;;;;;;;8.77;6.47;;;;;;;18.40;91.11;97583.38;5081877;28;20675;-60
2022/10/27 10:16:23;;;;;;;6.63;5.97;;;;;;;18.64;92.63;97585.19;5081705;28;20637;-60
2022/10/27 10:19:01;;;;;;;8.65;6.03;;;;;;;18.83;91.43;97575.94;5082523;28;20240;-61
2022/10/27 10:21:43;;;;;;;9.30;6.00;;;;;;;18.91;88.67;97573.25;5082477;28;20221;-60
2022/10/27 10:24:17;;;;;;;10.35;6.28;;;;;;;19.08;87.67;97568.66;5083459;28;20262;-61
2022/10/27 10:26:46;;;;;;;8.10;5.25;;;;;;;19.09;83.64;97567.66;5088140;28;20211;-60
2022/10/27 10:29:26;;;;;;;11.80;5.85;;;;;;;19.02;84.57;97567.53;5084690;28;20277;-62
2022/10/27 10:32:08;;;;;;;8.02;5.72;;;;;;;19.31;86.40;97573.09;5081955;28;20202;-60
2022/10/27 10:34:36;;;;;;;7.50;5.75;;;;;;;19.37;84.75;97572.41;5082201;28;20562;-61
2022/10/27 10:37:02;;;;;;;6.75;5.25;;;;;;;19.51;83.92;97578.91;5081477;28;20301;-59
2022/10/27 10:39:35;;;;;;;7.68;5.97;;;;;;;19.63;85.30;97564.06;5081971;28;20609;-62
2022/10/27 10:42:16;;;;;;;9.00;5.60;;;;;;;19.61;85.34;97568.78;5081603;28;20523;-61
2022/10/27 10:44:44;;;;;;;10.15;5.82;;;;;;;19.79;83.88;97561.28;5081807;28;20654;-60
2022/10/27 10:47:23;;;;;;;12.02;6.35;;;;;;;19.70;81.50;97562.31;5082159;28;20218;-60
2022/10/27 10:49:51;;;;;;;10.43;5.55;;;;;;;19.85;81.43;97565.94;5082100;28;20276;-60
2022/10/27 10:52:21;;;;;;;8.60;5.50;;;;;;;19.79;79.15;97566.66;5081597;28;20277;-60
2022/10/27 10:54:49;;;;;;;7.40;5.50;;;;;;;19.99;81.80;97566.16;5082225;28;20213;-59
2022/10/27 10:57:26;;;;;;;8.88;5.53;;;;;;;19.87;81.29;97561.19;5081114;28;20259;-60
2022/10/27 10:59:54;;;;;;;11.25;5.75;;;;;;;19.90;82.03;97562.72;5081693;28;20316;-60
2022/10/27 11:02:26;;;;;;;8.20;5.57;;;;;;;19.91;79.31;97559.00;5080916;28;20297;-60
2022/10/27 11:04:53;;;;;;;5.55;4.90;;;;;;;19.97;77.77;97552.94;5081216;28;20326;-60
2022/10/27 11:07:23;;;;;;;12.05;5.43;;;;;;;19.85;75.96;97548.97;5080990;28;20619;-60
2022/10/27 11:09:56;;;;;;;8.35;4.63;;;;;;;19.85;76.08;97544.44;5080803;28;20206;-60
2022/10/27 11:12:28;;;;;;;9.23;4.80;;;;;;;20.04;78.06;97542.28;5081370;28;20203;-60
2022/10/27 11:14:56;;;;;;;8.82;5.18;;;;;;;20.18;79.17;97538.81;5081142;28;20285;-60
2022/10/27 11:17:24;;;;;;;6.88;4.70;;;;;;;20.22;78.32;97529.38;5081446;28;20208;-60
2022/10/27 11:19:51;;;;;;;5.72;4.78;;;;;;;20.22;78.71;97530.22;5080746;28;20209;-60
2022/10/27 11:22:19;;;;;;;6.53;4.15;;;;;;;20.40;80.30;97521.03;5081536;28;20197;-60
2022/10/27 11:24:51;;;;;;;8.60;4.40;;;;;;;20.39;77.74;97527.41;5080633;28;20538;-60
2022/10/27 11:27:26;;;;;;;6.90;3.85;;;;;;;20.45;76.93;97529.34;5081302;28;20199;-60
2022/10/27 11:29:59;;;;;;;5.93;3.88;;;;;;;20.43;75.33;97526.03;5081436;28;20196;-61
2022/10/27 11:32:32;;;;;;;6.45;4.22;;;;;;;20.45;73.48;97530.19;5081198;28;20287;-60